Time;durP1;ratioP1;P1;durP2;ratioP2;P2;SDS_P1;SDS_P2;PMS_P1;PMS_P2;Temp;Humidity;BMP_temperature;BMP_pressure;BME280_temperature;BME280_humidity;BME280_pressure;Samples;Min_cycle;Max_cycle;Signal;HPM_P1;HPM_P2
2022/10/03 00:01:49;;;;;;;7.28;2.13;;;8.40;99.90;;;;;;5045975;28;20032;-74
2022/10/03 00:04:14;;;;;;;11.55;2.00;;;8.40;99.90;;;;;;5045559;28;20043;-74
2022/10/03 00:06:52;;;;;;;18.65;3.38;;;8.30;99.90;;;;;;5045805;28;20025;-74
2022/10/03 00:09:25;;;;;;;8.43;2.55;;;8.30;99.90;;;;;;5044494;28;20024;-74
2022/10/03 00:11:59;;;;;;;;;;;8.40;99.90;;;;;;5043824;28;20078;-74
2022/10/03 00:14:51;;;;;;;12.20;2.92;;;8.30;99.90;;;;;;5042086;28;19921;-74
2022/10/03 00:17:39;;;;;;;8.03;1.90;;;8.30;99.90;;;;;;5044001;28;20040;-74
2022/10/03 00:20:04;;;;;;;9.07;2.13;;;8.40;99.90;;;;;;5043897;28;20072;-74
2022/10/03 00:22:51;;;;;;;10.30;2.33;;;8.40;99.90;;;;;;5045535;28;20590;-74
2022/10/03 00:25:25;;;;;;;12.52;2.50;;;8.40;99.90;;;;;;5044469;28;20037;-74
2022/10/03 00:28:08;;;;;;;14.68;3.45;;;8.40;99.90;;;;;;5045621;28;20044;-74
2022/10/03 00:30:45;;;;;;;19.52;3.67;;;8.40;99.90;;;;;;5043645;28;20095;-75
2022/10/03 00:33:26;;;;;;;14.80;4.07;;;8.30;99.90;;;;;;5044735;28;20052;-74
2022/10/03 00:36:07;;;;;;;15.82;4.32;;;8.30;99.90;;;;;;5035501;28;20094;-74
2022/10/03 00:38:41;;;;;;;12.25;3.30;;;8.30;99.90;;;;;;5043454;28;20033;-74
2022/10/03 00:41:52;;;;;;;11.18;3.92;;;8.30;99.90;;;;;;5044467;28;20481;-74
2022/10/03 00:44:50;;;;;;;7.22;2.42;;;8.40;99.90;;;;;;5026421;28;20120;-74
2022/10/03 00:48:03;;;;;;;13.25;3.28;;;8.30;99.90;;;;;;5044279;28;20029;-75
2022/10/03 00:50:50;;;;;;;16.33;3.15;;;8.30;99.90;;;;;;5043609;28;20158;-74
2022/10/03 00:53:27;;;;;;;12.20;3.20;;;8.30;99.90;;;;;;5043873;28;20182;-74
2022/10/03 00:55:59;;;;;;;15.13;2.85;;;8.30;99.90;;;;;;5044978;28;20031;-74
2022/10/03 00:58:51;;;;;;;15.52;3.35;;;8.20;99.90;;;;;;5046194;28;20035;-74
2022/10/03 01:01:35;;;;;;;8.88;3.45;;;8.30;99.90;;;;;;5044300;28;20017;-74
2022/10/03 01:04:11;;;;;;;13.63;3.05;;;8.20;99.90;;;;;;5041474;28;20512;-74
2022/10/03 01:06:46;;;;;;;14.95;3.45;;;8.20;99.90;;;;;;5043965;28;20087;-74
2022/10/03 01:09:26;;;;;;;7.55;2.88;;;8.20;99.90;;;;;;5042658;28;20511;-74
2022/10/03 01:12:13;;;;;;;7.65;2.42;;;8.20;99.90;;;;;;5042948;28;20381;-74
2022/10/03 01:14:58;;;;;;;10.38;2.92;;;8.10;99.90;;;;;;5043489;28;20393;-74
2022/10/03 01:17:46;;;;;;;12.90;3.78;;;8.10;99.90;;;;;;5045922;28;20032;-74
2022/10/03 01:20:32;;;;;;;19.10;4.28;;;8.00;99.90;;;;;;5046281;28;20096;-74
2022/10/03 01:23:28;;;;;;;9.80;3.35;;;8.10;99.90;;;;;;5044200;28;20052;-74
2022/10/03 01:26:13;;;;;;;9.60;3.63;;;8.00;99.90;;;;;;5043561;28;20524;-74
2022/10/03 01:32:05;;;;;;;11.68;1.98;;;8.00;99.90;;;;;;5041991;28;20028;-73
2022/10/03 01:35:01;;;;;;;11.50;2.72;;;8.00;99.90;;;;;;5041657;28;20056;-74
2022/10/03 01:37:46;;;;;;;10.00;3.72;;;7.90;99.90;;;;;;5039661;28;20036;-74
2022/10/03 01:40:36;;;;;;;15.02;3.67;;;7.90;99.90;;;;;;5042079;28;20088;-74
2022/10/03 01:43:20;;;;;;;11.07;3.35;;;7.90;99.90;;;;;;5044557;28;20549;-74
2022/10/03 01:46:15;;;;;;;11.27;2.92;;;8.00;99.90;;;;;;5044469;28;20045;-74
2022/10/03 01:49:09;;;;;;;9.18;3.35;;;7.90;99.90;;;;;;5042804;28;20433;-74
2022/10/03 01:51:58;;;;;;;10.68;2.72;;;7.90;99.90;;;;;;5045871;28;20082;-74
2022/10/03 01:54:42;;;;;;;10.95;3.92;;;7.90;99.90;;;;;;5043421;28;20025;-74
2022/10/03 01:57:40;;;;;;;10.23;3.38;;;7.90;99.90;;;;;;5042166;28;20044;-75
2022/10/03 02:00:16;;;;;;;12.32;3.80;;;7.90;99.90;;;;;;5040686;28;20091;-74
2022/10/03 02:02:49;;;;;;;6.72;2.97;;;7.80;99.90;;;;;;5040771;28;20431;-74
2022/10/03 02:05:17;;;;;;;;;;;7.80;99.90;;;;;;5042476;28;20029;-73
2022/10/03 02:08:19;;;;;;;9.65;3.08;;;7.80;99.90;;;;;;5041727;28;19916;-74
2022/10/03 02:10:54;;;;;;;16.17;4.32;;;7.80;99.90;;;;;;5037910;28;20060;-74
2022/10/03 02:13:29;;;;;;;9.65;2.88;;;7.80;99.90;;;;;;5044334;28;20545;-74
2022/10/03 02:16:17;;;;;;;13.70;3.45;;;7.80;99.90;;;;;;5043501;28;20427;-74
2022/10/03 02:19:05;;;;;;;8.93;2.95;;;7.80;99.90;;;;;;5044559;28;20143;-74
2022/10/03 02:21:33;;;;;;;13.52;3.50;;;7.80;99.90;;;;;;5042985;28;20116;-74
2022/10/03 02:24:13;;;;;;;12.00;4.00;;;7.80;99.90;;;;;;5040884;28;20045;-74
2022/10/03 02:27:06;;;;;;;11.00;3.28;;;7.80;99.90;;;;;;5044312;28;20025;-74
2022/10/03 02:29:50;;;;;;;10.60;3.00;;;7.80;99.90;;;;;;5041355;28;20033;-74
2022/10/03 02:32:38;;;;;;;11.38;3.50;;;7.80;99.90;;;;;;5042724;28;20112;-74
2022/10/03 02:35:34;;;;;;;8.27;3.42;;;7.70;99.90;;;;;;5045018;28;21663;-74
2022/10/03 02:38:31;;;;;;;10.90;3.75;;;7.70;99.90;;;;;;5044925;28;20029;-74
2022/10/03 02:41:12;;;;;;;16.67;4.25;;;7.70;99.90;;;;;;5039244;28;20521;-74
2022/10/03 02:44:19;;;;;;;16.33;4.83;;;7.70;99.90;;;;;;5039089;28;20033;-74
2022/10/03 02:47:12;;;;;;;17.58;4.38;;;7.80;99.90;;;;;;5040239;28;20511;-74
2022/10/03 02:50:17;;;;;;;19.70;4.72;;;7.80;99.90;;;;;;5044333;28;20404;-74
2022/10/03 02:53:01;;;;;;;10.35;3.00;;;7.80;99.90;;;;;;5049533;28;20032;-75
2022/10/03 02:55:45;;;;;;;11.93;3.60;;;7.70;99.90;;;;;;5042671;28;20039;-74
2022/10/03 02:58:53;;;;;;;17.90;3.05;;;7.70;99.90;;;;;;5041939;28;20021;-74
2022/10/03 03:01:42;;;;;;;7.15;2.97;;;7.70;99.90;;;;;;5038051;28;20025;-73
2022/10/03 03:04:23;;;;;;;12.48;3.40;;;7.70;99.90;;;;;;5039640;28;20048;-74
2022/10/03 03:07:26;;;;;;;12.77;3.70;;;7.60;99.90;;;;;;5044369;28;20083;-74
2022/10/03 03:10:18;;;;;;;10.82;3.53;;;7.60;99.90;;;;;;5039663;28;20029;-74
2022/10/03 03:12:54;;;;;;;;;;;7.60;99.90;;;;;;5041644;28;20045;-74
2022/10/03 03:15:48;;;;;;;9.15;3.45;;;7.60;99.90;;;;;;5041120;28;19909;-73
2022/10/03 03:18:28;;;;;;;10.68;4.38;;;7.60;99.90;;;;;;5040535;28;20026;-73
2022/10/03 03:21:31;;;;;;;14.85;3.80;;;7.50;99.90;;;;;;5042312;28;20029;-73
2022/10/03 03:24:24;;;;;;;12.60;3.58;;;7.50;99.90;;;;;;5045672;28;20504;-74
2022/10/03 03:27:24;;;;;;;10.25;3.75;;;7.50;99.90;;;;;;5047283;28;20469;-74
2022/10/03 03:30:05;;;;;;;14.73;4.35;;;7.50;99.90;;;;;;5047639;28;20044;-74
2022/10/03 03:32:57;;;;;;;14.65;4.55;;;7.50;99.90;;;;;;5042825;28;20132;-74
2022/10/03 03:35:32;;;;;;;12.05;4.45;;;7.50;99.90;;;;;;5044793;28;20484;-74
2022/10/03 03:38:18;;;;;;;14.93;4.25;;;7.50;99.90;;;;;;5047099;28;20029;-74
2022/10/03 03:40:56;;;;;;;10.43;4.07;;;7.50;99.90;;;;;;5044619;28;20545;-74
2022/10/03 03:43:24;;;;;;;10.75;3.17;;;7.50;99.90;;;;;;5043607;28;20090;-74
2022/10/03 03:45:59;;;;;;;9.70;3.40;;;7.40;99.90;;;;;;5046381;28;20127;-73
2022/10/03 03:48:44;;;;;;;11.93;3.60;;;7.50;99.90;;;;;;5047181;28;20047;-74
2022/10/03 03:51:21;;;;;;;11.88;4.45;;;7.40;99.90;;;;;;5045693;28;20534;-73
2022/10/03 03:54:00;;;;;;;11.20;3.95;;;7.40;99.90;;;;;;5043693;28;20384;-74
2022/10/03 03:56:47;;;;;;;10.57;3.78;;;7.40;99.90;;;;;;5045378;28;20056;-74
2022/10/03 03:59:28;;;;;;;15.02;4.18;;;7.40;99.90;;;;;;5045984;28;20025;-74
2022/10/03 04:02:25;;;;;;;14.85;3.83;;;7.40;99.90;;;;;;5046214;28;20059;-74
2022/10/03 04:05:00;;;;;;;20.02;5.00;;;7.40;99.90;;;;;;5048003;28;20072;-73
2022/10/03 04:07:49;;;;;;;9.80;3.33;;;7.40;99.90;;;;;;5043279;28;20040;-74
2022/10/03 04:10:41;;;;;;;8.05;3.50;;;7.40;99.90;;;;;;5045051;28;20067;-74
2022/10/03 04:13:12;;;;;;;9.17;3.20;;;7.30;99.90;;;;;;5046314;28;20079;-74
2022/10/03 04:15:54;;;;;;;7.17;2.93;;;7.30;99.90;;;;;;5044513;28;20028;-74
2022/10/03 04:18:58;;;;;;;7.25;3.20;;;7.30;99.90;;;;;;5045632;28;20025;-74
2022/10/03 04:21:46;;;;;;;11.60;3.90;;;7.30;99.90;;;;;;5044656;28;20068;-73
2022/10/03 04:24:38;;;;;;;7.75;3.85;;;7.30;99.90;;;;;;5042397;28;20530;-74
2022/10/03 04:27:19;;;;;;;9.85;3.47;;;7.30;99.90;;;;;;5033091;28;20052;-74
2022/10/03 04:30:03;;;;;;;11.43;4.07;;;7.30;99.90;;;;;;5042677;28;20028;-74
2022/10/03 04:33:05;;;;;;;7.25;2.63;;;7.20;99.90;;;;;;5046221;28;20066;-73
2022/10/03 04:35:48;;;;;;;12.23;2.42;;;7.20;99.90;;;;;;5044749;28;20562;-74
2022/10/03 04:38:20;;;;;;;8.80;2.83;;;7.10;99.90;;;;;;5046860;28;20028;-73
2022/10/03 04:41:06;;;;;;;8.27;2.40;;;7.10;99.90;;;;;;5046427;28;20017;-73
2022/10/03 04:43:44;;;;;;;7.95;3.08;;;7.10;99.90;;;;;;5046355;28;20070;-74
2022/10/03 04:46:21;;;;;;;11.40;4.03;;;7.10;99.90;;;;;;5043907;28;20041;-73
2022/10/03 04:48:49;;;;;;;10.35;3.15;;;7.10;99.90;;;;;;5041045;28;20548;-74
2022/10/03 04:51:34;;;;;;;11.63;4.15;;;7.10;99.90;;;;;;5043507;28;20051;-74
2022/10/03 04:54:52;;;;;;;12.55;3.83;;;7.10;99.90;;;;;;5045487;28;20427;-73
2022/10/03 04:57:36;;;;;;;14.73;3.78;;;7.10;99.90;;;;;;5039391;28;20044;-74
2022/10/03 05:00:23;;;;;;;20.45;4.45;;;7.10;99.90;;;;;;5040899;28;20033;-74
2022/10/03 05:02:56;;;;;;;16.20;4.95;;;7.10;99.90;;;;;;5046105;28;20029;-73
2022/10/03 05:05:31;;;;;;;20.98;4.78;;;7.10;99.90;;;;;;5041867;28;20037;-74
2022/10/03 05:08:15;;;;;;;12.60;3.70;;;7.20;99.90;;;;;;5044510;28;20031;-73
2022/10/03 05:10:55;;;;;;;15.73;4.05;;;7.20;99.90;;;;;;5045012;28;20136;-74
2022/10/03 05:13:31;;;;;;;11.50;3.78;;;7.20;99.90;;;;;;5041405;28;20044;-74
2022/10/03 05:16:03;;;;;;;11.27;3.70;;;7.10;99.90;;;;;;5043990;28;20115;-74
2022/10/03 05:18:52;;;;;;;7.45;3.13;;;7.10;99.90;;;;;;5044127;28;20021;-74
2022/10/03 05:21:35;;;;;;;17.02;4.70;;;7.10;99.90;;;;;;5043059;28;20033;-74
2022/10/03 05:24:23;;;;;;;11.75;4.18;;;7.10;99.90;;;;;;5044257;28;20041;-73
2022/10/03 05:27:00;;;;;;;13.48;4.28;;;7.10;99.90;;;;;;5045009;28;20083;-74
2022/10/03 05:29:56;;;;;;;13.60;3.85;;;7.10;99.90;;;;;;5040481;28;20549;-73
2022/10/03 05:32:43;;;;;;;17.35;4.82;;;7.10;99.90;;;;;;5039407;28;20017;-74
2022/10/03 05:35:32;;;;;;;15.82;4.63;;;7.10;99.90;;;;;;5046623;28;20036;-73
2022/10/03 05:38:32;;;;;;;12.13;3.65;;;7.00;99.90;;;;;;5043262;28;20048;-74
2022/10/03 05:40:58;;;;;;;12.05;3.10;;;7.00;99.90;;;;;;5038662;28;20126;-74
2022/10/03 05:43:26;;;;;;;11.73;3.28;;;7.00;99.90;;;;;;5043354;28;20033;-76
2022/10/03 05:46:18;;;;;;;10.45;2.83;;;7.00;99.90;;;;;;5042743;28;20400;-75
2022/10/03 05:49:00;;;;;;;12.45;2.40;;;7.00;99.90;;;;;;5013312;28;20029;-75
2022/10/03 05:52:03;;;;;;;21.95;2.47;;;7.00;99.90;;;;;;5040755;28;20029;-75
2022/10/03 05:54:49;;;;;;;45.42;3.00;;;6.90;99.90;;;;;;5041965;28;20374;-74
2022/10/03 05:57:24;;;;;;;13.38;2.65;;;6.80;99.90;;;;;;5045273;28;20508;-74
2022/10/03 06:00:20;;;;;;;16.85;4.18;;;6.80;99.90;;;;;;5038311;28;20602;-74
2022/10/03 06:02:55;;;;;;;9.20;3.40;;;6.90;99.90;;;;;;5046482;28;20388;-74
2022/10/03 06:05:31;;;;;;;8.27;3.42;;;6.90;99.90;;;;;;5037327;28;20037;-74
2022/10/03 06:08:31;;;;;;;8.70;3.10;;;6.90;99.90;;;;;;5043940;28;20035;-75
2022/10/03 06:11:35;;;;;;;8.63;3.45;;;6.90;99.90;;;;;;5043847;28;20036;-75
2022/10/03 06:14:19;;;;;;;11.65;4.22;;;6.90;99.90;;;;;;5022862;28;20049;-74
2022/10/03 06:17:32;;;;;;;12.48;3.22;;;7.00;99.90;;;;;;5047831;28;20423;-74
2022/10/03 06:20:24;;;;;;;;;;;7.00;99.90;;;;;;5044683;28;20112;-75
2022/10/03 06:23:14;;;;;;;11.95;4.60;;;7.00;99.90;;;;;;5050883;28;19904;-74
2022/10/03 06:26:28;;;;;;;14.77;5.15;;;7.10;99.90;;;;;;5036714;28;20033;-75
2022/10/03 06:29:01;;;;;;;16.52;4.57;;;7.20;99.90;;;;;;5021205;28;20555;-74
2022/10/03 06:31:52;;;;;;;11.45;4.35;;;7.30;99.90;;;;;;5040497;28;20060;-74
2022/10/03 06:34:36;;;;;;;12.65;4.80;;;7.30;99.90;;;;;;5049630;28;20021;-74
2022/10/03 06:37:20;;;;;;;22.42;5.35;;;7.40;99.90;;;;;;5055629;28;20025;-74
2022/10/03 06:40:50;;;;;;;12.25;4.30;;;7.40;99.90;;;;;;5049609;28;20017;-74
2022/10/03 06:43:58;;;;;;;16.65;5.15;;;7.50;99.90;;;;;;4969062;28;20042;-74
2022/10/03 06:47:14;;;;;;;15.43;5.18;;;7.60;99.90;;;;;;5048154;28;20041;-75
2022/10/03 06:49:40;;;;;;;19.33;5.20;;;7.70;99.90;;;;;;5054749;28;20354;-74
2022/10/03 06:52:35;;;;;;;15.13;6.07;;;7.70;99.90;;;;;;5049195;28;20028;-74
2022/10/03 06:55:38;;;;;;;18.42;6.22;;;7.80;99.90;;;;;;5042794;28;20063;-74
2022/10/03 06:58:19;;;;;;;15.85;6.40;;;7.90;99.90;;;;;;5046120;28;20388;-74
2022/10/03 07:01:30;;;;;;;19.23;6.68;;;8.00;99.90;;;;;;5042171;28;20120;-74
2022/10/03 07:04:23;;;;;;;16.75;5.70;;;8.10;99.90;;;;;;5045724;28;20996;-73
2022/10/03 07:07:49;;;;;;;16.35;6.38;;;8.20;99.90;;;;;;5043082;28;20385;-74
2022/10/03 07:10:26;;;;;;;21.48;6.68;;;8.40;99.90;;;;;;4970537;28;20534;-74
2022/10/03 07:13:21;;;;;;;22.30;7.55;;;8.50;99.90;;;;;;4971189;28;20479;-74
2022/10/03 07:16:08;;;;;;;23.27;8.10;;;8.70;99.90;;;;;;5032250;28;20135;-74
2022/10/03 07:19:00;;;;;;;15.98;8.05;;;8.80;99.90;;;;;;5043382;28;20116;-74
2022/10/03 07:21:53;;;;;;;20.40;9.70;;;9.10;99.90;;;;;;5047325;28;20021;-74
2022/10/03 07:24:28;;;;;;;20.45;9.93;;;9.20;99.90;;;;;;5045995;28;20071;-74
2022/10/03 07:27:23;;;;;;;30.75;11.18;;;9.30;99.90;;;;;;5051954;28;20025;-74
2022/10/03 07:30:20;;;;;;;25.02;10.27;;;9.60;99.90;;;;;;5046098;28;20082;-73
2022/10/03 07:33:03;;;;;;;24.00;10.23;;;9.80;99.90;;;;;;5034604;28;20532;-74
2022/10/03 07:38:59;;;;;;;21.85;9.73;;;10.10;99.90;;;;;;5049212;28;20419;-75
2022/10/03 07:41:59;;;;;;;20.40;10.07;;;10.20;99.90;;;;;;5052008;28;20056;-75
2022/10/03 07:44:46;;;;;;;21.17;10.02;;;10.30;99.90;;;;;;5052097;28;20037;-75
2022/10/03 07:47:50;;;;;;;28.33;10.68;;;10.40;99.90;;;;;;5039389;28;20030;-73
2022/10/03 07:50:56;;;;;;;17.20;9.80;;;10.60;99.90;;;;;;5037730;28;20021;-74
2022/10/03 07:54:01;;;;;;;20.05;10.00;;;10.80;99.90;;;;;;5042592;28;20431;-75
2022/10/03 07:56:59;;;;;;;21.27;9.77;;;10.90;99.90;;;;;;5046510;28;20036;-75
2022/10/03 07:59:52;;;;;;;20.85;9.75;;;11.10;99.90;;;;;;5050561;28;20021;-75
2022/10/03 08:02:46;;;;;;;24.23;10.23;;;11.30;99.90;;;;;;5039036;28;20025;-75
2022/10/03 08:05:42;;;;;;;26.10;10.05;;;11.50;99.90;;;;;;5045396;28;20048;-74
2022/10/03 08:08:49;;;;;;;27.30;10.25;;;11.60;99.90;;;;;;5043096;28;20040;-75
2022/10/03 08:12:09;;;;;;;18.80;8.23;;;11.80;99.90;;;;;;5047380;28;20057;-75
2022/10/03 08:15:19;;;;;;;18.42;8.43;;;12.00;99.90;;;;;;5048769;28;20094;-74
2022/10/03 08:18:26;;;;;;;21.80;9.13;;;12.10;99.90;;;;;;5032013;28;20517;-75
2022/10/03 08:21:00;;;;;;;16.48;7.50;;;12.30;99.90;;;;;;5046106;28;20027;-74
2022/10/03 08:23:44;;;;;;;19.63;8.88;;;12.30;99.90;;;;;;5046796;28;20033;-75
2022/10/03 08:26:14;;;;;;;19.20;8.25;;;12.50;99.90;;;;;;5038527;28;20199;-74
2022/10/03 08:28:52;;;;;;;20.63;8.02;;;12.50;99.90;;;;;;5039978;28;20035;-75
2022/10/03 08:31:44;;;;;;;14.77;7.15;;;12.50;99.90;;;;;;5046369;28;20039;-75
2022/10/03 08:34:22;;;;;;;15.50;7.65;;;12.60;99.90;;;;;;5051141;28;20055;-74
2022/10/03 08:37:27;;;;;;;17.88;7.57;;;12.70;99.90;;;;;;5048115;28;20489;-74
2022/10/03 08:41:00;;;;;;;16.13;6.65;;;12.80;99.90;;;;;;5049062;28;20390;-75
2022/10/03 08:43:57;;;;;;;12.00;6.20;;;13.00;99.90;;;;;;5044826;28;20113;-75
2022/10/03 08:46:49;;;;;;;13.40;6.57;;;13.10;99.90;;;;;;5048756;28;20124;-75
2022/10/03 08:49:53;;;;;;;17.30;6.15;;;13.20;99.90;;;;;;5049224;28;20392;-75
2022/10/03 08:52:42;;;;;;;15.20;5.50;;;13.40;99.90;;;;;;5048860;28;20374;-75
2022/10/03 08:55:26;;;;;;;12.63;5.35;;;13.50;99.90;;;;;;5051141;28;20037;-73
2022/10/03 08:58:16;;;;;;;16.38;5.18;;;13.60;99.90;;;;;;5049850;28;20036;-73
2022/10/03 09:01:10;;;;;;;19.63;5.50;;;13.80;99.90;;;;;;5045368;28;20033;-74
2022/10/03 09:04:02;;;;;;;13.60;5.18;;;14.00;99.90;;;;;;5036551;28;20025;-75
2022/10/03 09:06:46;;;;;;;14.43;4.80;;;14.20;99.90;;;;;;5044280;28;20453;-74
2022/10/03 09:09:23;;;;;;;10.73;4.57;;;14.40;99.90;;;;;;5046368;28;20325;-75
2022/10/03 09:12:16;;;;;;;17.70;4.32;;;14.60;99.90;;;;;;5049960;28;20091;-75
2022/10/03 09:15:17;;;;;;;14.18;4.03;;;14.60;99.90;;;;;;5050478;28;20049;-75
2022/10/03 09:18:03;;;;;;;10.55;4.13;;;14.80;99.90;;;;;;5050084;28;20029;-75
2022/10/03 09:21:05;;;;;;;9.48;3.70;;;15.00;99.90;;;;;;5050107;28;20112;-75
2022/10/03 09:23:46;;;;;;;9.60;4.10;;;15.20;99.90;;;;;;5041692;28;20087;-76
2022/10/03 09:26:47;;;;;;;9.95;3.30;;;15.30;99.90;;;;;;5037844;28;20033;-75
2022/10/03 09:29:32;;;;;;;15.20;3.97;;;15.50;99.90;;;;;;5045297;28;20392;-75
2022/10/03 09:32:46;;;;;;;9.50;2.90;;;15.60;99.90;;;;;;5031357;28;20094;-74
2022/10/03 09:35:28;;;;;;;7.35;1.63;;;15.80;99.90;;;;;;5045074;28;20376;-74
2022/10/03 09:38:31;;;;;;;11.02;1.83;;;15.90;99.90;;;;;;5046992;28;20094;-73
2022/10/03 09:41:27;;;;;;;7.57;1.90;;;16.00;99.90;;;;;;5048105;28;20447;-74
2022/10/03 09:44:11;;;;;;;8.02;1.70;;;16.10;99.90;;;;;;5045219;28;20098;-74
2022/10/03 09:47:22;;;;;;;9.43;1.65;;;16.00;99.90;;;;;;5045950;28;20028;-75
2022/10/03 09:50:32;;;;;;;12.45;2.28;;;16.00;99.90;;;;;;5038298;28;20032;-75
2022/10/03 09:53:36;;;;;;;7.38;2.28;;;16.00;99.90;;;;;;5043253;28;20025;-74
2022/10/03 09:56:11;;;;;;;8.60;1.98;;;16.10;99.90;;;;;;5045468;28;20215;-74
2022/10/03 09:59:10;;;;;;;12.00;1.73;;;16.20;99.90;;;;;;5044825;28;20025;-74
2022/10/03 10:02:14;;;;;;;9.07;1.60;;;16.40;99.90;;;;;;5036758;28;20497;-75
2022/10/03 10:04:56;;;;;;;11.13;1.45;;;16.60;99.90;;;;;;5033181;28;20052;-75
2022/10/03 10:08:03;;;;;;;10.60;1.27;;;16.60;99.90;;;;;;5043211;28;20118;-75
2022/10/03 10:10:41;;;;;;;9.30;1.30;;;16.70;99.90;;;;;;5042277;28;20032;-75
2022/10/03 10:13:13;;;;;;;11.82;1.58;;;16.70;99.90;;;;;;5045347;28;20041;-74
2022/10/03 10:16:11;;;;;;;12.30;1.77;;;16.80;99.90;;;;;;5040150;28;20108;-74
2022/10/03 10:19:12;;;;;;;10.73;1.92;;;16.90;99.90;;;;;;5039757;28;20469;-75
2022/10/03 10:22:13;;;;;;;8.80;1.50;;;17.00;99.90;;;;;;5040542;28;20036;-75
2022/10/03 10:24:45;;;;;;;7.60;1.10;;;17.10;99.90;;;;;;5048670;28;20051;-74
2022/10/03 10:27:41;;;;;;;8.85;1.27;;;17.10;99.90;;;;;;5041785;28;20033;-75
2022/10/03 10:30:53;;;;;;;9.82;1.70;;;17.10;99.90;;;;;;5050016;28;20030;-75
2022/10/03 10:33:27;;;;;;;9.13;1.23;;;17.30;99.90;;;;;;5045007;28;20183;-74
2022/10/03 10:35:59;;;;;;;9.68;1.23;;;17.50;99.90;;;;;;5044059;28;20029;-75
2022/10/03 10:38:48;;;;;;;8.60;0.73;;;17.50;99.90;;;;;;5045318;28;20033;-75
2022/10/03 10:41:55;;;;;;;7.15;1.00;;;17.40;99.90;;;;;;5051120;28;20820;-74
2022/10/03 10:44:52;;;;;;;6.20;0.77;;;17.30;99.90;;;;;;5039247;28;20056;-74
2022/10/03 10:47:37;;;;;;;9.15;0.80;;;17.20;99.90;;;;;;5034909;28;20018;-76
2022/10/03 10:50:50;;;;;;;8.07;1.17;;;17.20;99.90;;;;;;5043795;28;20177;-75
2022/10/03 10:53:36;;;;;;;;;;;17.40;99.90;;;;;;5001822;28;20034;-75
2022/10/03 10:56:44;;;;;;;4.50;0.80;;;17.40;99.90;;;;;;5007856;28;19913;-76
2022/10/03 10:59:31;;;;;;;4.75;0.52;;;17.60;99.90;;;;;;5048341;28;20043;-74
2022/10/03 11:02:33;;;;;;;11.10;1.42;;;17.60;99.90;;;;;;5054578;28;20095;-74
2022/10/03 11:05:35;;;;;;;5.85;0.82;;;17.60;99.90;;;;;;5053321;28;20045;-74
2022/10/03 11:08:43;;;;;;;5.13;0.50;;;17.60;99.90;;;;;;5047590;28;20326;-74
2022/10/03 11:11:27;;;;;;;4.47;0.40;;;17.70;99.90;;;;;;5047922;28;20051;-74
2022/10/03 11:14:18;;;;;;;8.32;0.70;;;17.80;99.90;;;;;;5050960;28;20045;-74
2022/10/03 11:17:12;;;;;;;3.85;0.40;;;17.90;99.90;;;;;;5050816;28;20166;-74
2022/10/03 11:19:46;;;;;;;7.60;0.50;;;17.90;99.90;;;;;;5044473;28;20100;-74
2022/10/03 11:22:30;;;;;;;6.88;0.40;;;18.00;99.90;;;;;;5043595;28;20029;-74
2022/10/03 11:25:28;;;;;;;5.32;0.63;;;18.00;99.90;;;;;;5047180;28;20083;-75
2022/10/03 11:28:36;;;;;;;4.85;0.60;;;18.00;99.90;;;;;;5044634;28;20100;-74
2022/10/03 11:31:20;;;;;;;9.77;0.52;;;18.00;99.90;;;;;;5047582;28;20041;-74
2022/10/03 11:34:31;;;;;;;6.70;0.40;;;17.90;99.90;;;;;;5049966;28;20043;-74
2022/10/03 11:37:05;;;;;;;4.05;0.50;;;17.90;99.90;;;;;;5040850;28;20040;-74
2022/10/03 11:39:55;;;;;;;5.70;0.30;;;17.90;99.90;;;;;;5041226;28;20029;-74
2022/10/03 11:42:51;;;;;;;4.90;0.68;;;18.00;99.90;;;;;;5044512;28;20029;-74
2022/10/03 11:45:34;;;;;;;5.00;0.40;;;18.20;99.90;;;;;;5047654;28;20471;-74
2022/10/03 11:48:28;;;;;;;7.60;0.40;;;18.20;99.90;;;;;;5043842;28;20493;-74
2022/10/03 11:51:14;;;;;;;2.00;0.30;;;18.10;99.90;;;;;;5038937;28;20041;-74
2022/10/03 11:53:51;;;;;;;9.45;0.50;;;18.20;99.90;;;;;;5037612;28;20405;-74
2022/10/03 11:56:46;;;;;;;2.90;0.40;;;18.10;99.90;;;;;;5040174;28;20099;-75
2022/10/03 11:59:23;;;;;;;6.25;0.40;;;18.20;99.90;;;;;;5048680;28;20064;-74
2022/10/03 12:02:08;;;;;;;4.47;0.40;;;18.20;99.90;;;;;;5052654;28;20138;-74
2022/10/03 12:04:52;;;;;;;5.15;0.60;;;18.30;99.90;;;;;;5036401;28;20434;-74
2022/10/03 12:10:38;;;;;;;8.23;0.68;;;18.50;99.90;;;;;;5043912;28;20080;-75
2022/10/03 12:13:21;;;;;;;3.15;0.30;;;18.40;99.90;;;;;;5046096;28;20045;-74
2022/10/03 12:15:50;;;;;;;6.93;0.30;;;18.50;99.90;;;;;;5050150;28;20025;-74
2022/10/03 12:18:24;;;;;;;6.43;0.57;;;18.50;99.90;;;;;;5048917;28;20088;-74
2022/10/03 12:21:08;;;;;;;4.82;0.40;;;18.50;99.90;;;;;;5051793;28;20530;-73
2022/10/03 12:24:04;;;;;;;5.43;0.30;;;18.50;99.90;;;;;;5033506;28;20022;-76
2022/10/03 12:26:52;;;;;;;5.57;0.20;;;18.60;99.90;;;;;;5042896;28;20413;-75
2022/10/03 12:29:20;;;;;;;6.80;0.40;;;18.60;99.90;;;;;;5051399;28;20048;-75
2022/10/03 12:32:24;;;;;;;5.60;0.30;;;18.70;99.90;;;;;;5037944;28;20110;-75
2022/10/03 12:34:49;;;;;;;4.97;0.73;;;18.80;99.90;;;;;;5047865;28;20405;-74
2022/10/03 12:37:41;;;;;;;3.78;0.38;;;18.90;99.90;;;;;;5035316;28;20029;-74
2022/10/03 12:40:28;;;;;;;4.40;0.30;;;19.00;99.90;;;;;;5038708;28;20067;-75
2022/10/03 12:43:30;;;;;;;3.70;0.35;;;19.00;99.90;;;;;;5040272;28;20070;-75
2022/10/03 12:46:11;;;;;;;4.43;0.30;;;19.00;99.90;;;;;;5047692;28;20087;-75
2022/10/03 12:48:49;;;;;;;4.13;0.22;;;19.10;99.90;;;;;;5036891;28;20053;-75
2022/10/03 12:51:32;;;;;;;4.40;0.30;;;19.30;99.90;;;;;;5045519;28;20036;-75
2022/10/03 12:54:27;;;;;;;3.83;0.30;;;19.50;99.90;;;;;;5043244;28;20099;-75
2022/10/03 12:57:14;;;;;;;5.53;0.40;;;19.70;99.80;;;;;;5033766;28;20022;-75
2022/10/03 12:59:46;;;;;;;3.33;0.30;;;19.70;99.70;;;;;;5047437;28;20032;-75
2022/10/03 13:02:23;;;;;;;5.70;0.40;;;19.70;99.50;;;;;;5033703;28;20484;-76
2022/10/03 13:05:26;;;;;;;3.53;0.30;;;19.80;99.50;;;;;;5039738;28;20082;-75
2022/10/03 13:08:34;;;;;;;5.30;0.30;;;19.90;99.30;;;;;;5043776;28;20100;-75
2022/10/03 13:11:10;;;;;;;4.63;0.30;;;19.90;98.80;;;;;;5043508;28;20026;-74
2022/10/03 13:14:00;;;;;;;5.65;0.30;;;19.80;98.60;;;;;;5047045;28;20446;-74
2022/10/03 13:16:29;;;;;;;2.83;0.30;;;19.70;99.10;;;;;;5051306;28;20491;-74
2022/10/03 13:19:26;;;;;;;8.30;0.60;;;19.80;98.60;;;;;;5043652;28;20049;-74
2022/10/03 13:22:12;;;;;;;4.82;0.40;;;19.90;98.30;;;;;;5037175;28;20036;-74
2022/10/03 13:24:47;;;;;;;5.47;0.65;;;19.80;98.10;;;;;;5032056;28;20033;-74
2022/10/03 13:27:29;;;;;;;4.95;0.38;;;19.70;98.20;;;;;;5049866;28;20397;-74
2022/10/03 13:30:05;;;;;;;4.07;0.30;;;19.70;98.30;;;;;;5043143;28;20020;-74
2022/10/03 13:32:35;;;;;;;5.35;0.40;;;19.90;98.30;;;;;;5049645;28;20029;-74
2022/10/03 13:38:19;;;;;;;7.15;0.50;;;19.90;98.00;;;;;;5032963;28;20098;-74
2022/10/03 13:41:07;;;;;;;6.78;0.50;;;19.90;97.70;;;;;;5032068;28;20065;-74
2022/10/03 13:43:37;;;;;;;8.02;0.50;;;19.80;97.90;;;;;;5035213;28;20029;-74
2022/10/03 13:46:14;;;;;;;7.13;0.95;;;20.00;97.90;;;;;;5033794;28;20045;-74
2022/10/03 13:48:44;;;;;;;4.82;0.50;;;20.20;97.80;;;;;;5044980;28;20022;-74
2022/10/03 13:51:43;;;;;;;4.60;0.40;;;20.40;97.30;;;;;;5037681;28;20036;-74
2022/10/03 13:54:20;;;;;;;5.75;0.40;;;20.40;97.00;;;;;;5038576;28;20028;-74
2022/10/03 13:57:14;;;;;;;3.55;0.40;;;20.30;96.90;;;;;;5050386;28;20021;-74
2022/10/03 13:59:51;;;;;;;4.63;0.47;;;20.30;96.70;;;;;;5041726;28;20036;-74
2022/10/03 14:02:41;;;;;;;4.07;0.50;;;20.10;96.60;;;;;;5047153;28;20397;-75
2022/10/03 14:05:26;;;;;;;3.00;0.30;;;19.90;96.90;;;;;;5037868;28;20132;-74
2022/10/03 14:08:28;;;;;;;8.45;0.40;;;19.80;96.90;;;;;;5047686;28;20017;-74
2022/10/03 14:11:21;;;;;;;3.58;0.40;;;19.80;96.80;;;;;;5034191;28;20410;-74
2022/10/03 14:13:58;;;;;;;6.32;0.50;;;19.70;96.60;;;;;;5037417;28;20501;-74
2022/10/03 14:16:32;;;;;;;3.65;0.47;;;19.60;96.80;;;;;;5031273;28;20036;-74
2022/10/03 14:19:09;;;;;;;5.07;0.40;;;19.50;96.90;;;;;;5036505;28;20029;-74
2022/10/03 14:21:50;;;;;;;6.60;0.55;;;19.40;97.10;;;;;;5034188;28;20100;-74
2022/10/03 14:24:24;;;;;;;5.20;0.30;;;19.40;97.40;;;;;;5040533;28;20035;-74
2022/10/03 14:27:07;;;;;;;5.47;0.40;;;19.40;97.70;;;;;;5041522;28;20021;-74
2022/10/03 14:29:50;;;;;;;6.32;0.32;;;19.40;97.80;;;;;;5036709;28;20029;-74
2022/10/03 14:32:25;;;;;;;5.10;0.30;;;19.40;97.70;;;;;;5040078;28;20025;-74
2022/10/03 14:35:06;;;;;;;7.70;0.40;;;19.40;97.70;;;;;;5043377;28;20114;-74
2022/10/03 14:38:09;;;;;;;5.60;0.50;;;19.40;97.70;;;;;;5042363;28;20021;-74
2022/10/03 14:40:47;;;;;;;6.97;0.50;;;19.40;97.70;;;;;;5015292;28;20037;-75
2022/10/03 14:43:27;;;;;;;4.80;0.45;;;19.40;97.80;;;;;;5036791;28;20228;-75
2022/10/03 14:45:56;;;;;;;5.47;0.40;;;19.30;97.70;;;;;;5044558;28;20065;-75
2022/10/03 14:48:27;;;;;;;5.20;0.45;;;19.20;97.90;;;;;;5040536;28;20017;-75